< < Back
Terminal Aerodrome Forecast


Current Version              Previous Versions:   1  2  3  4  5  6  7  8  9  

Terminal Aerodrome Forecast

004
FTUS42 KCAE 271700 RRA
TAFCAE
TAF
KCAE 271744Z 2718/2818 VRB04KT P6SM SCT060 SCT220
     FM280200 03005KT P6SM SKC
     FM281500 05008KT P6SM SCT250=



Latest METAR

745
SAUS80 KWBC 280200
MTRCAE
METAR KCAE 280156Z 00000KT 10SM BKN200 16/11 A2988 RMK AO2 SLP117
T01610111


USA.gov is the U.S. government's official web portal to all federal, state and local government web resources and services.